Time;durP1;ratioP1;P1;durP2;ratioP2;P2;SDS_P1;SDS_P2;PMS_P1;PMS_P2;Temp;Humidity;BMP_temperature;BMP_pressure;BME280_temperature;BME280_humidity;BME280_pressure;Samples;Min_cycle;Max_cycle;Signal;HPM_P1;HPM_P2
2023/02/10 00:00:22;;;;;;;47.17;25.08;;;;;;;-4.92;100.00;97979.13;6164827;23;20052;-92
2023/02/10 00:02:47;;;;;;;52.73;25.03;;;;;;;-4.87;100.00;97985.03;6190344;23;20012;-92
2023/02/10 00:05:15;;;;;;;49.53;25.17;;;;;;;-4.91;100.00;97983.38;6166187;23;20043;-93
2023/02/10 00:07:40;;;;;;;46.93;25.37;;;;;;;-4.96;100.00;97991.16;6190560;23;20016;-92
2023/02/10 00:10:06;;;;;;;48.17;23.27;;;;;;;-5.00;100.00;98005.75;6190795;23;20008;-92
2023/02/10 00:12:36;;;;;;;43.73;23.33;;;;;;;-5.12;100.00;97993.09;6163798;23;20054;-93
2023/02/10 00:15:02;;;;;;;49.17;24.80;;;;;;;-5.23;100.00;98000.06;6163752;23;20443;-92
2023/02/10 00:17:28;;;;;;;47.47;25.37;;;;;;;-5.13;100.00;98004.22;6163942;23;20453;-92
2023/02/10 00:19:53;;;;;;;49.37;25.73;;;;;;;-5.15;100.00;97999.97;6190195;23;20420;-92
2023/02/10 00:22:19;;;;;;;42.30;23.03;;;;;;;-5.22;100.00;97991.50;6187908;23;20015;-92
2023/02/10 00:24:45;;;;;;;43.27;24.27;;;;;;;-5.13;100.00;97993.09;6164973;23;20013;-92
2023/02/10 00:27:10;;;;;;;44.13;22.37;;;;;;;-5.10;100.00;97988.75;6189689;23;20013;-92
2023/02/10 00:29:36;;;;;;;45.03;23.17;;;;;;;-5.06;100.00;97994.72;6189886;23;20019;-92
2023/02/10 00:32:02;;;;;;;45.57;24.07;;;;;;;-5.05;100.00;97988.72;6165749;23;20290;-92
2023/02/10 00:34:27;;;;;;;40.37;22.43;;;;;;;-5.19;100.00;97983.78;6189717;23;20013;-92
2023/02/10 00:36:53;;;;;;;43.80;20.60;;;;;;;-5.16;100.00;97988.00;6189295;23;20610;-92
2023/02/10 00:39:20;;;;;;;44.97;21.30;;;;;;;-5.13;100.00;97986.25;6165457;23;20017;-93
2023/02/10 00:41:45;;;;;;;40.95;21.95;;;;;;;-5.15;100.00;97994.84;6198790;23;20023;-92
2023/02/10 00:44:11;;;;;;;41.90;22.73;;;;;;;-5.24;100.00;97990.66;6188952;23;20005;-92
2023/02/10 00:46:37;;;;;;;45.30;20.83;;;;;;;-5.43;100.00;97994.31;6191987;23;20004;-93
2023/02/10 00:49:04;;;;;;;46.78;21.85;;;;;;;-5.50;100.00;97994.41;6167124;23;20013;-93
2023/02/10 00:51:29;;;;;;;35.83;20.53;;;;;;;-5.55;100.00;97992.75;6208986;23;20019;-92
2023/02/10 00:53:56;;;;;;;40.63;20.83;;;;;;;-5.40;100.00;97994.28;6214776;23;20013;-93
2023/02/10 00:56:22;;;;;;;45.10;22.27;;;;;;;-5.31;100.00;97995.03;6171567;23;20009;-92
2023/02/10 00:58:48;;;;;;;42.17;22.67;;;;;;;-5.37;100.00;97994.25;6165554;23;21110;-92
2023/02/10 01:01:14;;;;;;;40.50;21.47;;;;;;;-5.49;100.00;98010.63;6139069;23;20009;-92
2023/02/10 01:03:39;;;;;;;39.00;21.20;;;;;;;-5.67;100.00;98003.97;6161500;23;20009;-92
2023/02/10 01:06:05;;;;;;;41.53;21.03;;;;;;;-5.61;100.00;98021.84;6137424;23;20048;-92
2023/02/10 01:08:33;;;;;;;41.27;20.77;;;;;;;-5.66;100.00;98021.06;6161913;23;20945;-92
2023/02/10 01:11:05;;;;;;;45.33;21.73;;;;;;;-5.66;100.00;98018.50;6137187;23;20424;-92
2023/02/10 01:13:41;;;;;;;47.75;23.25;;;;;;;-5.59;100.00;98020.13;6187441;23;20013;-92
2023/02/10 01:16:14;;;;;;;42.42;20.92;;;;;;;-5.63;100.00;98015.91;6161138;23;20445;-92
2023/02/10 01:18:41;;;;;;;41.97;22.35;;;;;;;-5.62;100.00;98024.44;6161029;23;20023;-92
2023/02/10 01:21:15;;;;;;;45.50;23.23;;;;;;;-5.49;100.00;98018.31;6134758;23;20045;-92
2023/02/10 01:23:45;;;;;;;40.40;21.42;;;;;;;-5.48;100.00;98017.44;6180625;23;20035;-92
2023/02/10 01:26:11;;;;;;;42.30;23.23;;;;;;;-5.38;100.00;98013.06;6132752;23;20434;-92
2023/02/10 01:28:41;;;;;;;44.83;22.83;;;;;;;-5.33;100.00;98011.28;6167519;23;20159;-92
2023/02/10 01:31:19;;;;;;;42.78;22.55;;;;;;;-5.26;100.00;98010.38;6158724;23;20020;-92
2023/02/10 01:33:45;;;;;;;45.72;24.23;;;;;;;-5.17;100.00;98012.78;6134663;23;20111;-93
2023/02/10 01:36:14;;;;;;;45.00;21.73;;;;;;;-5.17;100.00;98010.22;6159133;23;20005;-92
2023/02/10 01:38:41;;;;;;;46.70;23.48;;;;;;;-5.16;100.00;98011.06;6133985;23;20047;-93
2023/02/10 01:41:11;;;;;;;43.17;23.17;;;;;;;-5.25;100.00;98004.34;6134155;23;20052;-91
2023/02/10 01:44:18;;;;;;;39.90;20.98;;;;;;;-5.26;100.00;98008.66;6159556;23;20009;-92
2023/02/10 01:46:44;;;;;;;41.90;20.40;;;;;;;-5.27;100.00;98011.22;6069652;23;20025;-92
2023/02/10 01:49:14;;;;;;;41.27;21.57;;;;;;;-5.32;100.00;98008.72;6167643;23;20021;-92
2023/02/10 01:52:06;;;;;;;44.80;22.30;;;;;;;-5.27;100.00;98006.09;6135011;23;20017;-92
2023/02/10 01:54:45;;;;;;;43.15;20.67;;;;;;;-5.23;100.00;98002.63;6159660;23;20020;-92
2023/02/10 01:57:11;;;;;;;42.63;22.40;;;;;;;-5.25;100.00;98009.50;6153585;23;20020;-91
2023/02/10 01:59:39;;;;;;;44.53;21.05;;;;;;;-5.26;100.00;98008.66;6132521;23;20078;-91
2023/02/10 02:02:08;;;;;;;40.75;21.38;;;;;;;-5.24;100.00;98013.75;6157726;23;20017;-92
2023/02/10 02:04:44;;;;;;;46.77;22.10;;;;;;;-5.29;100.00;98011.25;6133751;23;20012;-91
2023/02/10 02:07:10;;;;;;;39.10;20.35;;;;;;;-5.31;100.00;98012.13;6135135;23;20443;-92
2023/02/10 02:09:36;;;;;;;38.20;22.00;;;;;;;-5.33;100.00;98006.16;6136430;23;20434;-92
2023/02/10 02:12:26;;;;;;;37.20;20.77;;;;;;;-5.37;100.00;98004.50;6186087;23;20100;-91
2023/02/10 02:15:02;;;;;;;44.00;22.80;;;;;;;-5.38;100.00;98007.94;6137099;23;20080;-91
2023/02/10 02:17:43;;;;;;;48.15;20.90;;;;;;;-5.41;100.00;98002.84;6162234;23;20078;-92
2023/02/10 02:20:41;;;;;;;38.88;20.67;;;;;;;-5.41;100.00;98008.81;6172606;23;20017;-92
2023/02/10 02:23:06;;;;;;;35.78;19.40;;;;;;;-5.44;100.00;98011.41;6164847;23;20017;-92
2023/02/10 02:26:06;;;;;;;38.80;21.13;;;;;;;-5.51;100.00;98012.34;6134065;23;20051;-92
2023/02/10 02:28:34;;;;;;;40.95;20.63;;;;;;;-5.61;100.00;98010.75;6132727;23;20005;-91
2023/02/10 02:31:06;;;;;;;43.50;21.92;;;;;;;-5.71;100.00;98017.69;6182915;23;20008;-92
2023/02/10 02:33:54;;;;;;;42.88;21.35;;;;;;;-5.71;100.00;98020.25;6132667;23;20076;-91
2023/02/10 02:36:35;;;;;;;40.33;20.10;;;;;;;-5.72;100.00;98016.00;6156849;23;20917;-91
2023/02/10 02:39:05;;;;;;;40.80;20.48;;;;;;;-5.78;100.00;98016.06;6156824;23;20344;-92
2023/02/10 02:41:33;;;;;;;47.33;22.10;;;;;;;-5.81;100.00;98018.66;6156991;23;20043;-92
2023/02/10 02:44:01;;;;;;;40.33;20.38;;;;;;;-5.85;100.00;98024.69;6157173;23;20431;-92
2023/02/10 02:46:49;;;;;;;42.22;22.60;;;;;;;-5.93;100.00;98019.69;6132093;23;20071;-92
2023/02/10 02:49:59;;;;;;;44.83;24.23;;;;;;;-5.95;100.00;98032.47;6132215;23;20012;-92
2023/02/10 02:52:52;;;;;;;44.15;23.15;;;;;;;-6.01;100.00;98032.53;6183994;23;20016;-92
2023/02/10 02:55:35;;;;;;;41.45;22.45;;;;;;;-5.98;100.00;98042.75;6137939;23;20353;-92
2023/02/10 02:58:05;;;;;;;;;;;;;;;-6.05;100.00;98043.69;6192072;23;20070;-92
2023/02/10 03:00:35;;;;;;;39.00;21.73;;;;;;;-6.10;100.00;98047.13;6165074;23;19916;-92
2023/02/10 03:03:01;;;;;;;42.95;20.55;;;;;;;-6.15;100.00;98047.19;6190867;23;20024;-92
2023/02/10 03:05:30;;;;;;;45.67;25.05;;;;;;;-6.17;100.00;98051.44;6165973;23;20000;-92
2023/02/10 03:07:56;;;;;;;39.83;22.33;;;;;;;-6.14;100.00;98050.59;6165911;23;20008;-92
2023/02/10 03:10:22;;;;;;;42.17;21.23;;;;;;;-6.12;100.00;98049.72;6189926;23;20016;-92
2023/02/10 03:12:50;;;;;;;44.03;24.17;;;;;;;-6.11;100.00;98051.41;6188948;23;20313;-92
2023/02/10 03:15:16;;;;;;;42.90;22.55;;;;;;;-6.15;100.00;98049.75;6187901;23;20036;-92
2023/02/10 03:17:42;;;;;;;44.92;22.58;;;;;;;-6.18;100.00;98058.28;6187497;23;20019;-92
2023/02/10 03:20:08;;;;;;;41.30;21.80;;;;;;;-6.22;100.00;98054.06;6163244;23;20362;-91
2023/02/10 03:22:34;;;;;;;46.55;23.13;;;;;;;-6.26;100.00;98064.34;6164525;23;20044;-92
2023/02/10 03:25:03;;;;;;;49.00;25.03;;;;;;;-6.21;100.00;98062.59;6165512;23;20013;-92
2023/02/10 03:27:29;;;;;;;43.88;22.75;;;;;;;-6.20;100.00;98051.50;6190332;23;20008;-92
2023/02/10 03:29:54;;;;;;;47.93;24.27;;;;;;;-6.16;100.00;98045.50;6190331;23;20020;-92
2023/02/10 03:32:20;;;;;;;41.83;21.97;;;;;;;-6.12;100.00;98049.72;6190542;23;20027;-92
2023/02/10 03:34:46;;;;;;;42.63;23.20;;;;;;;-6.16;100.00;98053.19;6189653;23;20104;-91
2023/02/10 03:37:14;;;;;;;44.78;22.65;;;;;;;-6.10;100.00;98042.88;6189848;23;20083;-92
2023/02/10 03:39:40;;;;;;;45.55;23.85;;;;;;;-6.10;100.00;98050.56;6165363;23;20015;-91
2023/02/10 03:42:06;;;;;;;49.07;24.03;;;;;;;-6.07;100.00;98054.78;6188292;23;20008;-92
2023/02/10 03:44:33;;;;;;;46.95;23.77;;;;;;;-6.11;100.00;98061.66;6189424;23;20050;-91
2023/02/10 03:46:58;;;;;;;41.47;23.55;;;;;;;-6.12;100.00;98065.09;6215635;23;20023;-92
2023/02/10 03:49:24;;;;;;;45.33;23.30;;;;;;;-6.17;100.00;98056.56;6190994;23;20004;-92
2023/02/10 03:51:50;;;;;;;47.00;24.30;;;;;;;-6.05;100.00;98058.19;6165137;23;20154;-91
2023/02/10 03:54:15;;;;;;;57.67;26.43;;;;;;;-6.10;100.00;98057.38;6190984;23;20016;-91
2023/02/10 03:56:41;;;;;;;52.67;25.83;;;;;;;-5.95;100.00;98062.38;6168878;23;20325;-91
2023/02/10 03:59:06;;;;;;;45.00;22.83;;;;;;;-5.92;100.00;98058.03;6214973;23;20023;-92
2023/02/10 04:01:35;;;;;;;46.67;23.13;;;;;;;-6.02;100.00;98055.63;6196391;23;20012;-91
2023/02/10 04:04:01;;;;;;;43.17;22.55;;;;;;;-6.03;100.00;98052.22;6190700;23;20438;-92
2023/02/10 04:06:27;;;;;;;44.17;21.80;;;;;;;-6.11;100.00;98051.41;6189608;23;20016;-91
2023/02/10 04:08:53;;;;;;;41.73;21.40;;;;;;;-6.12;100.00;98065.09;6189956;23;20009;-91
2023/02/10 04:11:23;;;;;;;48.00;23.87;;;;;;;-6.30;100.00;98072.91;6165943;23;20611;-91
2023/02/10 04:13:49;;;;;;;45.28;24.05;;;;;;;-6.29;100.00;98082.28;6190348;23;20013;-91
2023/02/10 04:16:16;;;;;;;50.37;25.43;;;;;;;-6.37;100.00;98078.91;6189895;23;20070;-92
2023/02/10 04:18:43;;;;;;;56.55;30.00;;;;;;;-6.48;100.00;98079.84;6216884;23;20445;-91
2023/02/10 04:21:14;;;;;;;54.30;26.33;;;;;;;-6.35;100.00;98074.66;6191497;23;20024;-92
2023/02/10 04:23:40;;;;;;;46.05;22.25;;;;;;;-6.36;100.00;98072.97;6193866;23;20012;-92
2023/02/10 04:26:06;;;;;;;46.67;23.97;;;;;;;-6.28;100.00;98073.75;6199215;23;20092;-92
2023/02/10 04:28:32;;;;;;;48.63;24.65;;;;;;;-6.29;100.00;98072.06;6200255;23;20019;-92
2023/02/10 04:31:00;;;;;;;55.07;26.60;;;;;;;-6.48;100.00;98082.41;6195352;23;20012;-92
2023/02/10 04:33:27;;;;;;;61.42;27.95;;;;;;;-6.45;100.00;98081.53;6194179;23;20016;-91
2023/02/10 04:36:44;;;;;;;74.38;33.47;;;;;;;-6.55;100.00;98078.19;6167424;23;20004;-92
2023/02/10 04:39:09;;;;;;;83.18;35.47;;;;;;;-6.58;100.00;98072.25;6194253;23;20024;-91
2023/02/10 04:41:35;;;;;;;93.27;39.40;;;;;;;-6.54;100.00;98082.47;6192687;23;20048;-92
2023/02/10 04:44:01;;;;;;;87.43;37.63;;;;;;;-6.54;100.00;98086.72;6192653;23;20407;-92
2023/02/10 04:46:26;;;;;;;80.57;35.63;;;;;;;-6.58;100.00;98091.00;6167181;23;20009;-91
2023/02/10 04:48:52;;;;;;;75.77;34.93;;;;;;;-6.60;100.00;98092.75;6217513;23;20012;-92
2023/02/10 04:51:18;;;;;;;78.87;38.03;;;;;;;-6.59;100.00;98094.44;6191528;23;20400;-91
2023/02/10 04:53:44;;;;;;;91.23;41.67;;;;;;;-6.56;100.00;98101.25;6190574;23;20025;-92
2023/02/10 04:56:10;;;;;;;82.95;39.05;;;;;;;-6.59;100.00;98097.00;6191631;23;20013;-92
2023/02/10 04:58:36;;;;;;;75.73;37.50;;;;;;;-6.60;100.00;98095.28;6191334;23;20020;-91
2023/02/10 05:01:01;;;;;;;66.53;33.47;;;;;;;-6.59;100.00;98093.59;6191003;23;20008;-91
2023/02/10 05:03:28;;;;;;;62.93;30.17;;;;;;;-6.60;100.00;98105.53;6191732;23;20326;-91
2023/02/10 05:05:54;;;;;;;60.00;27.92;;;;;;;-6.66;100.00;98103.00;6169256;23;20027;-91
2023/02/10 05:08:22;;;;;;;56.17;26.30;;;;;;;-6.69;100.00;98105.56;6196099;23;20013;-96
2023/02/10 05:10:54;;;;;;;69.25;31.42;;;;;;;-6.68;100.00;98110.66;6206638;23;20005;-95
2023/02/10 05:13:20;;;;;;;103.43;44.17;;;;;;;-6.66;100.00;98108.13;6202050;23;20512;-92
2023/02/10 05:15:46;;;;;;;128.67;51.40;;;;;;;-6.54;100.00;98118.28;6222001;23;20103;-91
2023/02/10 05:18:13;;;;;;;119.65;47.25;;;;;;;-6.61;100.00;98115.75;6195084;23;20015;-92
2023/02/10 05:20:39;;;;;;;140.63;52.53;;;;;;;-6.67;100.00;98117.50;6171598;23;20057;-91
2023/02/10 05:23:05;;;;;;;156.60;57.87;;;;;;;-6.68;100.00;98120.06;6195176;23;20452;-92
2023/02/10 05:25:30;;;;;;;148.20;55.87;;;;;;;-6.66;100.00;98123.47;6194971;23;20017;-91
2023/02/10 05:28:00;;;;;;;111.03;46.17;;;;;;;-6.67;100.00;98121.78;6221436;23;20009;-91
2023/02/10 05:30:26;;;;;;;108.18;43.08;;;;;;;-6.67;100.00;98122.63;6197472;23;20016;-92
2023/02/10 05:32:51;;;;;;;99.23;40.90;;;;;;;-6.66;100.00;98126.03;6195914;23;20461;-92
2023/02/10 05:35:17;;;;;;;86.10;37.30;;;;;;;-6.68;100.00;98117.50;6183484;23;20020;-92
2023/02/10 05:37:43;;;;;;;89.30;38.37;;;;;;;-6.69;100.00;98123.47;6209037;23;20016;-91
2023/02/10 05:40:10;;;;;;;87.80;37.33;;;;;;;-6.68;100.00;98135.41;6172820;23;20494;-92
2023/02/10 05:42:36;;;;;;;94.90;39.65;;;;;;;-6.73;100.00;98137.16;6171002;23;20082;-91
2023/02/10 05:45:01;;;;;;;84.03;37.17;;;;;;;-6.74;100.00;98138.00;6192067;23;20013;-91
2023/02/10 05:47:39;;;;;;;78.30;36.27;;;;;;;-6.69;100.00;98137.13;6192113;23;20459;-90
2023/02/10 05:50:17;;;;;;;92.28;39.70;;;;;;;-6.70;100.00;98130.31;6192467;23;20035;-91
2023/02/10 05:52:44;;;;;;;69.03;33.20;;;;;;;-6.41;100.00;98131.84;6193890;23;20013;-91
2023/02/10 05:55:13;;;;;;;64.22;29.70;;;;;;;-6.30;100.00;98136.94;6166889;23;20050;-92
2023/02/10 05:57:50;;;;;;;54.35;29.15;;;;;;;-6.25;100.00;98130.91;6191938;23;20404;-92
2023/02/10 06:00:16;;;;;;;56.40;26.08;;;;;;;-5.22;100.00;98132.56;6188918;23;20013;-87
2023/02/10 06:02:42;;;;;;;69.70;33.35;;;;;;;-5.85;100.00;98128.00;6166100;23;20012;-89
2023/02/10 06:05:07;;;;;;;64.23;32.40;;;;;;;-6.13;100.00;98136.81;6165182;23;20495;-89
2023/02/10 06:07:33;;;;;;;56.70;30.33;;;;;;;-6.19;100.00;98145.38;6190391;23;20012;-89
2023/02/10 06:09:59;;;;;;;48.10;27.07;;;;;;;-6.38;100.00;98149.75;6190407;23;20031;-89
2023/02/10 06:12:24;;;;;;;54.03;25.93;;;;;;;-6.46;100.00;98154.91;6190538;23;20031;-87
2023/02/10 06:14:50;;;;;;;50.10;26.20;;;;;;;-6.47;100.00;98154.91;6155836;23;20012;-84
2023/02/10 06:17:16;;;;;;;51.80;25.33;;;;;;;-6.55;100.00;98161.78;6180018;23;20079;-88
2023/02/10 06:19:41;;;;;;;47.83;24.80;;;;;;;-6.56;100.00;98158.38;6209871;23;20039;-88
2023/02/10 06:22:09;;;;;;;47.07;26.03;;;;;;;-6.56;100.00;98152.44;6209810;23;20000;-88
2023/02/10 06:24:35;;;;;;;46.53;25.17;;;;;;;-6.72;100.00;98160.16;6211417;23;20035;-88
2023/02/10 06:27:01;;;;;;;79.67;35.50;;;;;;;-6.65;100.00;98166.94;6190842;23;20012;-88
2023/02/10 06:29:28;;;;;;;65.87;31.27;;;;;;;-6.70;100.00;98163.56;6187968;23;20237;-88
2023/02/10 06:31:53;;;;;;;64.97;32.33;;;;;;;-6.76;100.00;98160.19;6186538;23;20058;-89
2023/02/10 06:34:19;;;;;;;63.10;30.60;;;;;;;-6.81;100.00;98154.22;6190299;23;20036;-89
2023/02/10 06:36:45;;;;;;;60.23;30.37;;;;;;;-6.75;100.00;98162.72;6164758;23;20008;-88
2023/02/10 06:39:12;;;;;;;59.20;29.75;;;;;;;-6.74;100.00;98168.69;6189285;23;20111;-89
2023/02/10 06:41:38;;;;;;;60.22;30.48;;;;;;;-6.79;100.00;98178.09;6187572;23;20058;-89
2023/02/10 06:44:03;;;;;;;54.63;29.07;;;;;;;-6.76;100.00;98178.94;6186695;23;20020;-83
2023/02/10 06:46:32;;;;;;;53.20;27.93;;;;;;;-6.79;100.00;98188.34;6185958;23;20017;-83
2023/02/10 06:48:59;;;;;;;62.42;29.88;;;;;;;-6.74;100.00;98189.16;6210465;23;20027;-84
2023/02/10 06:51:25;;;;;;;61.67;30.25;;;;;;;-6.68;100.00;98191.69;6184984;23;20016;-84
2023/02/10 06:53:51;;;;;;;55.83;27.88;;;;;;;-6.69;100.00;98190.84;6164158;23;20324;-84
2023/02/10 06:56:16;;;;;;;52.23;26.83;;;;;;;-6.60;100.00;98194.25;6150557;23;20602;-84
2023/02/10 06:58:42;;;;;;;51.10;27.23;;;;;;;-6.48;100.00;98210.38;6174215;23;20024;-83
2023/02/10 07:01:16;;;;;;;52.07;28.13;;;;;;;-6.42;100.00;98202.69;6152442;23;20088;-84
2023/02/10 07:03:42;;;;;;;53.55;29.05;;;;;;;-6.29;100.00;98210.31;6124898;23;20036;-83
2023/02/10 07:06:08;;;;;;;60.03;28.60;;;;;;;-6.23;100.00;98200.88;6152572;23;20057;-84
2023/02/10 07:08:36;;;;;;;49.10;26.90;;;;;;;-6.11;100.00;98205.06;6144305;23;20407;-83
2023/02/10 07:11:03;;;;;;;50.85;25.77;;;;;;;-6.02;100.00;98204.19;6121557;23;20821;-83
2023/02/10 07:13:29;;;;;;;51.35;27.90;;;;;;;-5.80;100.00;98207.41;6132919;23;20035;-84
2023/02/10 07:15:56;;;;;;;49.27;27.13;;;;;;;-5.65;100.00;98212.41;6157089;23;20016;-84
2023/02/10 07:18:22;;;;;;;52.80;27.23;;;;;;;-5.46;100.00;98205.44;6143105;23;20548;-84
2023/02/10 07:20:48;;;;;;;57.47;29.13;;;;;;;-5.29;100.00;98202.72;6117375;23;20459;-84
2023/02/10 07:23:13;;;;;;;52.53;28.07;;;;;;;-5.22;100.00;98199.25;6140378;23;20641;-84
2023/02/10 07:25:39;;;;;;;50.10;26.73;;;;;;;-4.94;100.00;98201.53;6183956;23;20024;-84
2023/02/10 07:28:07;;;;;;;59.00;29.27;;;;;;;-4.72;100.00;98195.28;6184798;23;20495;-84
2023/02/10 07:30:33;;;;;;;52.90;27.70;;;;;;;-4.52;100.00;98203.63;6183045;23;20477;-84
2023/02/10 07:33:28;;;;;;;47.80;25.27;;;;;;;-3.95;100.00;98194.31;6183872;23;20018;-84
2023/02/10 07:35:54;;;;;;;49.45;24.67;;;;;;;-4.01;100.00;98197.81;6182748;23;20008;-84
2023/02/10 07:38:20;;;;;;;47.47;26.47;;;;;;;-3.86;100.00;98201.88;6210168;23;20008;-84
2023/02/10 07:40:52;;;;;;;51.70;27.13;;;;;;;-2.86;100.00;98201.91;6184662;23;20035;-84
2023/02/10 07:43:18;;;;;;;50.80;27.47;;;;;;;-2.76;100.00;98201.75;6185261;23;20013;-84
2023/02/10 07:45:54;;;;;;;52.33;26.43;;;;;;;-2.31;100.00;98204.25;6184531;23;20407;-84
2023/02/10 07:48:20;;;;;;;46.87;25.53;;;;;;;-1.70;100.00;98197.78;6185189;23;20427;-84
2023/02/10 07:50:47;;;;;;;48.53;25.17;;;;;;;-1.66;100.00;98189.94;6183995;23;20020;-84
2023/02/10 07:53:15;;;;;;;53.43;23.97;;;;;;;-1.92;100.00;98192.25;6159392;23;20020;-84
2023/02/10 07:55:40;;;;;;;49.37;25.90;;;;;;;-1.67;100.00;98183.09;6104090;23;1310998;-84
2023/02/10 07:58:06;;;;;;;43.43;24.43;;;;;;;-1.67;100.00;98185.66;6187248;23;20776;-84
2023/02/10 08:00:34;;;;;;;41.50;24.60;;;;;;;-1.39;100.00;98182.41;6186203;23;20021;-84
2023/02/10 08:02:59;;;;;;;46.30;25.60;;;;;;;-1.05;100.00;98184.13;6186454;23;20012;-84
2023/02/10 08:05:26;;;;;;;44.43;25.60;;;;;;;-1.17;100.00;98181.84;6186002;23;20950;-84
2023/02/10 08:07:52;;;;;;;39.00;23.97;;;;;;;-0.97;100.00;98177.91;6161656;23;20019;-84
2023/02/10 08:10:22;;;;;;;43.90;25.47;;;;;;;-1.00;100.00;98170.22;6160318;23;20432;-84
2023/02/10 08:12:53;;;;;;;43.90;25.97;;;;;;;-0.88;100.00;98171.63;6186224;23;20428;-84
2023/02/10 08:15:20;;;;;;;44.97;25.50;;;;;;;-0.75;100.00;98164.38;6184191;23;20432;-83
2023/02/10 08:17:48;;;;;;;42.47;24.73;;;;;;;-0.81;100.00;98167.13;6186451;23;20588;-85
2023/02/10 08:20:14;;;;;;;42.67;26.37;;;;;;;-0.31;100.00;98165.69;6186989;23;20431;-84
2023/02/10 08:22:44;;;;;;;43.70;24.23;;;;;;;0.69;100.00;98165.19;6160353;23;20514;-85
2023/02/10 08:25:10;;;;;;;42.10;23.13;;;;;;;0.86;100.00;98162.88;6186657;23;20505;-84
2023/02/10 08:27:36;;;;;;;40.03;21.70;;;;;;;0.60;100.00;98166.34;6185430;23;20415;-85
2023/02/10 08:30:14;;;;;;;43.90;26.87;;;;;;;1.15;100.00;98168.81;6184667;23;20515;-86
2023/02/10 08:32:40;;;;;;;48.10;26.03;;;;;;;0.66;100.00;98171.31;6159602;23;20231;-85
2023/02/10 08:35:19;;;;;;;42.17;25.00;;;;;;;1.57;100.00;98171.59;6185146;23;20408;-84
2023/02/10 08:37:44;;;;;;;43.43;24.60;;;;;;;2.38;100.00;98170.25;6185906;23;20016;-85
2023/02/10 08:40:15;;;;;;;39.63;24.17;;;;;;;2.21;100.00;98168.31;6184554;23;20812;-85
2023/02/10 08:42:41;;;;;;;38.73;23.27;;;;;;;2.19;100.00;98177.09;6210362;23;20083;-85
2023/02/10 08:45:07;;;;;;;44.27;24.80;;;;;;;2.76;100.00;98171.31;6185029;23;20420;-85
2023/02/10 08:47:34;;;;;;;39.80;22.57;;;;;;;3.41;100.00;98174.59;6162202;23;20099;-85
2023/02/10 08:50:00;;;;;;;44.60;25.40;;;;;;;4.25;100.00;98169.91;6217263;23;20388;-86
2023/02/10 08:52:25;;;;;;;50.47;27.67;;;;;;;4.26;100.00;98179.44;6186029;23;20414;-86
2023/02/10 08:54:51;;;;;;;40.93;24.73;;;;;;;4.11;100.00;98180.97;6160403;23;20063;-86
2023/02/10 08:57:18;;;;;;;52.67;29.07;;;;;;;4.49;100.00;98180.94;6159448;23;20087;-86
2023/02/10 08:59:44;;;;;;;49.97;26.70;;;;;;;5.30;100.00;98176.91;6185538;23;20567;-86
2023/02/10 09:02:13;;;;;;;44.33;26.50;;;;;;;4.89;100.00;98168.56;6184314;23;20024;-86
2023/02/10 09:04:40;;;;;;;39.30;24.57;;;;;;;4.52;100.00;98175.56;6186453;23;20016;-86
2023/02/10 09:07:07;;;;;;;40.47;24.77;;;;;;;5.09;100.00;98159.72;6187558;23;20016;-86
2023/02/10 09:09:41;;;;;;;43.00;25.67;;;;;;;5.12;100.00;98154.34;6188139;23;20060;-86
2023/02/10 09:12:10;;;;;;;43.53;24.70;;;;;;;4.70;100.00;98158.22;6188913;23;20016;-86
2023/02/10 09:14:36;;;;;;;40.33;24.67;;;;;;;6.04;100.00;98163.44;6164570;23;20008;-87
2023/02/10 09:17:02;;;;;;;42.87;28.30;;;;;;;5.95;100.00;98170.94;6213875;23;20440;-87
2023/02/10 09:19:29;;;;;;;47.90;27.90;;;;;;;6.21;100.00;98167.75;6189023;23;20009;-86
2023/02/10 09:21:56;;;;;;;43.57;25.37;;;;;;;5.38;100.00;98171.28;6185840;23;20023;-86
2023/02/10 09:24:23;;;;;;;45.27;26.40;;;;;;;5.88;100.00;98166.00;6187453;23;20337;-86
2023/02/10 09:26:48;;;;;;;42.63;27.13;;;;;;;5.45;100.00;98172.66;6186827;23;20023;-87
2023/02/10 09:29:14;;;;;;;39.07;24.80;;;;;;;5.90;100.00;98173.75;6212226;23;20012;-87
2023/02/10 09:31:41;;;;;;;39.03;25.47;;;;;;;6.66;100.00;98160.84;6187220;23;20020;-86
2023/02/10 09:34:09;;;;;;;30.80;21.23;;;;;;;6.73;100.00;98162.19;6198019;23;20020;-86
2023/02/10 09:36:35;;;;;;;34.90;22.43;;;;;;;6.93;100.00;98154.97;6187707;23;20019;-87
2023/02/10 09:39:01;;;;;;;33.13;22.20;;;;;;;6.83;100.00;98165.13;6163186;23;20004;-87
2023/02/10 09:41:36;;;;;;;34.13;22.97;;;;;;;7.02;100.00;98159.66;6212250;23;20016;-87
2023/02/10 09:44:30;;;;;;;36.50;22.37;;;;;;;7.15;100.00;98163.25;6211894;23;20060;-87
2023/02/10 09:47:19;;;;;;;34.13;23.13;;;;;;;6.48;100.00;98169.75;6190382;23;20005;-85
2023/02/10 09:50:04;;;;;;;37.93;22.23;;;;;;;6.61;100.00;98168.13;6162367;23;20527;-90
2023/02/10 09:56:02;;;;;;;33.47;22.47;;;;;;;6.75;100.00;98165.56;6188211;23;20322;-85
2023/02/10 09:58:43;;;;;;;44.67;24.97;;;;;;;7.11;100.00;98169.59;6212283;23;20142;-85
2023/02/10 10:01:29;;;;;;;34.27;22.23;;;;;;;7.66;100.00;98171.53;6210915;23;20074;-85
2023/02/10 10:04:00;;;;;;;34.40;23.33;;;;;;;6.78;100.00;98182.84;6187115;23;20027;-85
2023/02/10 10:06:30;;;;;;;35.00;23.20;;;;;;;7.37;100.00;98180.28;6186801;23;20016;-85
2023/02/10 10:09:09;;;;;;;34.30;22.83;;;;;;;7.04;100.00;98173.47;6211873;23;20064;-85
2023/02/10 10:11:40;;;;;;;35.13;21.90;;;;;;;6.92;100.00;98179.44;6186646;23;20482;-84
2023/02/10 10:14:25;;;;;;;36.63;22.33;;;;;;;7.07;100.00;98178.53;6186054;23;20008;-84
2023/02/10 10:17:24;;;;;;;33.93;23.13;;;;;;;7.08;100.00;98177.63;6186383;23;20020;-83
2023/02/10 10:20:27;;;;;;;35.23;22.40;;;;;;;7.44;100.00;98173.75;6162627;23;20009;-87
2023/02/10 10:23:17;;;;;;;37.28;23.45;;;;;;;7.37;100.00;98178.50;6163703;23;20330;-85
2023/02/10 10:26:13;;;;;;;37.97;22.10;;;;;;;7.60;99.43;98171.88;6190563;23;20015;-84
2023/02/10 10:29:01;;;;;;;38.60;23.50;;;;;;;7.87;99.34;98168.50;6163997;23;20099;-85
2023/02/10 10:31:30;;;;;;;34.47;21.80;;;;;;;7.74;98.92;98169.25;6186590;23;20017;-84
2023/02/10 10:34:03;;;;;;;33.53;22.30;;;;;;;7.55;99.72;98166.94;6188486;23;20009;-85
2023/02/10 10:36:38;;;;;;;37.43;23.80;;;;;;;7.47;100.00;98165.72;6186867;23;20043;-84
2023/02/10 10:39:33;;;;;;;35.70;23.20;;;;;;;7.37;100.00;98165.41;6186634;23;20095;-85
2023/02/10 10:42:16;;;;;;;33.87;22.03;;;;;;;7.45;100.00;98162.34;6187674;23;20016;-85
2023/02/10 10:44:43;;;;;;;36.87;21.80;;;;;;;7.68;99.92;98161.81;6196703;23;20080;-84
2023/02/10 10:47:29;;;;;;;34.27;20.40;;;;;;;7.79;98.06;98159.34;6210466;23;20008;-85
2023/02/10 10:49:55;;;;;;;33.30;20.60;;;;;;;7.37;97.31;98160.19;6178484;23;20080;-85
2023/02/10 10:52:37;;;;;;;33.00;21.40;;;;;;;7.43;98.81;98166.84;6185363;23;20000;-85
2023/02/10 10:55:14;;;;;;;35.60;22.90;;;;;;;8.12;97.40;98158.19;6200244;23;20079;-84
2023/02/10 10:57:46;;;;;;;32.50;21.03;;;;;;;7.49;97.90;98174.31;6154181;23;20012;-85
2023/02/10 11:00:28;;;;;;;32.70;20.60;;;;;;;7.16;100.00;98162.31;6153404;23;20096;-84
2023/02/10 11:02:59;;;;;;;31.20;20.00;;;;;;;8.44;93.52;98158.78;6154328;23;20441;-85
2023/02/10 11:05:31;;;;;;;33.27;21.23;;;;;;;8.15;93.23;98157.13;6155970;23;20014;-85
2023/02/10 11:07:59;;;;;;;36.90;23.60;;;;;;;8.43;95.29;98151.03;6132070;23;20013;-85
2023/02/10 11:10:55;;;;;;;30.43;20.03;;;;;;;8.18;91.46;98147.34;6132231;23;20425;-84
2023/02/10 11:13:28;;;;;;;35.67;21.43;;;;;;;8.71;89.62;98150.91;6132979;23;20024;-86
2023/02/10 11:16:22;;;;;;;31.27;18.45;;;;;;;8.69;88.82;98151.97;6137275;23;20033;-85
2023/02/10 11:18:54;;;;;;;33.13;20.93;;;;;;;8.57;89.34;98142.25;6131138;23;20020;-85
2023/02/10 11:21:20;;;;;;;32.40;20.50;;;;;;;8.03;88.22;98143.03;6130499;23;20017;-85
2023/02/10 11:23:56;;;;;;;35.33;20.67;;;;;;;8.46;87.00;98142.97;6131433;23;20044;-85
2023/02/10 11:26:27;;;;;;;32.30;20.93;;;;;;;8.36;88.10;98139.22;6131641;23;20024;-85
2023/02/10 11:29:07;;;;;;;30.30;20.37;;;;;;;8.79;85.26;98141.72;6155693;23;20017;-85